EBLGEBCI

Guest
Details From EBLG - Liege
To EBCI - Brussels South - Charleroi
Flight Number -
Tags generated
Created
Modified
Stats Distance 42 nm / 77 km
Max Altitude 4,500 ft / 1,372 m
Waypoints 3
Social Downloads 2
Likes 0
Share VATSIM

Download

Looking for another format? Having issues loading an existing format? Contact us
Advertisement - Login to hide

Notes

Basic altitude profile: - Ascent Rate: 2500ft/min - Ascent Speed: 250kts - Cruise Altitude: 35000ft - Cruise Speed: 420kts - Descent Rate: 1500ft/min - Descent Speed: 250kts

Route

EBLG REMBA EBCI

ID Type Via Altitude Latitude Longitude Leg Dist Tot Dist Heading (true) Name
O EBLG APT - 0 ft / 0 m 50.63812˚ 5.44314˚ - 0 nm - Liege
REMBA FIX - 4,500 ft / 1,372 m 50.66223˚ 4.91403˚ 20 nm 20 nm 274° / 274° -
O EBCI APT - 0 ft / 0 m 50.45995˚ 4.45312˚ 21 nm 41 nm 236° / 235° Brussels South - Charleroi

Altitude Profile

Advertisement - Login to hide

EBLG

Details ICAO EBLG (LGG)
Name Liege
Region Belgium
Timezone Europe/Brussels (UTC+1.0)
Stats Elevation 645 ft / 197 m (AMSL)
Location 50.638120° 5.443140°
Runways 2
Magnetic Variation 1.427° E

METAR

EBLG 121620Z 25007KT 9000 BKN009 BKN010 02/00 Q1012 NOSIG

Decode

TAF

TAF EBLG 121110Z 1212/1318 24008KT 9999 SCT004 SCT015 TEMPO 1212/1217 2500 -SHSNRA BKN004 SCT011TCU PROB40 TEMPO 1212/1217 0800 SHSN BKN002 BKN010CB TEMPO 1300/1318 20017G30KT TEMPO 1307/1318 4000 RADZ SCT003 BKN005

Decode

Departure Runways

ID Width Length Bearing (true) Bearing (mag) Surface Threshold Offset Overrun Length
05L 148 ft / 45 m 7,664 ft / 2,336 m 44.99° 43.56° Asphalt 151 ft / 46 m 0 ft / 0 m
05R 148 ft / 45 m 10,792 ft / 3,290 m 44.99° 43.56° Asphalt 151 ft / 46 m 0 ft / 0 m
23L 148 ft / 45 m 10,792 ft / 3,290 m 225.01° 223.58° Asphalt 151 ft / 46 m 0 ft / 0 m
23R 148 ft / 45 m 7,664 ft / 2,336 m 225.01° 223.58° Asphalt 151 ft / 46 m 0 ft / 0 m

EBCI

Details ICAO EBCI (CRL)
Name Brussels South - Charleroi
Region Belgium
Timezone Europe/Brussels (UTC+1.0)
Stats Elevation 614 ft / 187 m (AMSL)
Location 50.459947° 4.453125°
Runways 1
Magnetic Variation 1.133° E

METAR

EBCI 121620Z 21006KT 9999 FEW010 02/00 Q1012 NOSIG

Decode

TAF

TAF EBCI 121110Z 1212/1318 24008KT 9999 SCT004 SCT015 TEMPO 1212/1215 2500 -SHSNRA BKN004 SCT011TCU PROB40 TEMPO 1212/1215 0800 SHSN BKN002 BKN010CB TEMPO 1300/1318 20017G30KT TEMPO 1305/1318 4000 RADZ SCT003 BKN005

Decode

Destination Runways

ID Width Length Bearing (true) Bearing (mag) Surface Threshold Offset Overrun Length
07 148 ft / 45 m 8,374 ft / 2,552 m 65.53° 64.40° Asphalt 1,476 ft / 450 m 0 ft / 0 m
25 148 ft / 45 m 8,374 ft / 2,552 m 245.55° 244.42° Asphalt 0 ft / 0 m 0 ft / 0 m

Approach Navaids

Runway Type Ident Frequency Range Bearing (true) Bearing (mag) Slope Elevation
25 Localiser IGC 110.90 MHz 18 nm / 33 km 245.54° 244.41° - 614 ft / 187 m (AMSL)
25 Glidescope IGC 110.90 MHz 10 nm / 19 km 245.54° 244.41° 3.00° 614 ft / 187 m (AMSL)

Popular Alternatives